createdAt,value
2017-10-05T00:00:45.816Z,1010.98
2017-10-05T00:01:54.648Z,1010.9
2017-10-05T00:03:03.481Z,1010.89
2017-10-05T00:04:12.313Z,1010.84
2017-10-05T00:05:21.143Z,1010.89
2017-10-05T00:06:30.076Z,1010.83
2017-10-05T00:07:38.907Z,1010.89
2017-10-05T00:08:47.736Z,1010.86
2017-10-05T00:09:56.568Z,1010.89
2017-10-05T00:11:05.402Z,1010.8
2017-10-05T00:12:14.867Z,1010.71
2017-10-05T00:13:23.697Z,1010.72
2017-10-05T00:14:32.530Z,1010.7
2017-10-05T00:15:41.359Z,1010.72
2017-10-05T00:16:50.195Z,1010.64
2017-10-05T00:17:59.177Z,1010.54
2017-10-05T00:19:08.009Z,1010.43
2017-10-05T00:20:17.080Z,1010.44
2017-10-05T00:21:26.017Z,1010.35
2017-10-05T00:22:34.850Z,1010.35
2017-10-05T00:23:43.983Z,1010.4
2017-10-05T00:24:52.810Z,1010.34
2017-10-05T00:26:01.642Z,1010.41
2017-10-05T00:27:10.475Z,1010.34
2017-10-05T00:28:19.306Z,1010.29
2017-10-05T00:29:28.238Z,1010.17
2017-10-05T00:30:37.070Z,1010.14
2017-10-05T00:31:45.901Z,1010.08
2017-10-05T00:32:54.732Z,1010.15
2017-10-05T00:34:03.565Z,1010.05
2017-10-05T00:35:12.398Z,1010.1
2017-10-05T00:36:21.228Z,1010.11
2017-10-05T00:37:30.062Z,1010.1
2017-10-05T00:38:38.893Z,1010.15
2017-10-05T00:39:47.726Z,1010.27
2017-10-05T00:40:56.610Z,1010.27
2017-10-05T00:42:05.445Z,1010.23
2017-10-05T00:43:14.277Z,1010.25
2017-10-05T00:44:23.109Z,1010.4
2017-10-05T00:45:31.942Z,1010.34
2017-10-05T00:46:40.824Z,1010.25
2017-10-05T00:47:49.657Z,1010.26
2017-10-05T00:48:58.486Z,1010.29
2017-10-05T00:50:07.318Z,1010.23
2017-10-05T00:51:16.150Z,1010.27
2017-10-05T00:52:24.984Z,1010.29
2017-10-05T00:53:33.817Z,1010.32
2017-10-05T00:54:42.651Z,1010.32
2017-10-05T00:55:51.480Z,1010.38
2017-10-05T00:57:00.312Z,1010.22
2017-10-05T00:58:09.145Z,1010.16
2017-10-05T00:59:17.985Z,1010.18
2017-10-05T01:00:27.146Z,1010.07
2017-10-05T01:01:35.978Z,1010.04
2017-10-05T01:02:45.141Z,1010.03
2017-10-05T01:03:54.073Z,1010.11
2017-10-05T01:05:02.904Z,1010.04
2017-10-05T01:06:11.734Z,1010
2017-10-05T01:07:20.565Z,1009.96
2017-10-05T01:08:29.397Z,1009.86
2017-10-05T01:09:38.529Z,1009.73
2017-10-05T01:10:47.364Z,1009.68
2017-10-05T01:11:56.196Z,1009.65
2017-10-05T01:13:05.026Z,1009.61
2017-10-05T01:14:13.858Z,1009.63
2017-10-05T01:15:22.992Z,1009.63
2017-10-05T01:16:31.826Z,1009.63
2017-10-05T01:17:40.658Z,1009.59
2017-10-05T01:18:49.490Z,1009.57
2017-10-05T01:19:58.655Z,1009.52
2017-10-05T01:21:07.737Z,1009.49
2017-10-05T01:22:16.903Z,1009.49
2017-10-05T01:23:25.730Z,1009.46
2017-10-05T01:24:34.562Z,1009.49
2017-10-05T01:25:43.395Z,1009.49
2017-10-05T01:26:52.327Z,1009.54
2017-10-05T01:28:01.158Z,1009.49
2017-10-05T01:29:09.991Z,1009.53
2017-10-05T01:30:18.823Z,1009.38
2017-10-05T01:31:27.653Z,1009.36
2017-10-05T01:32:36.483Z,1009.32
2017-10-05T01:33:45.317Z,1009.26
2017-10-05T01:34:54.487Z,1009.18
2017-10-05T01:36:03.317Z,1009.13
2017-10-05T01:37:12.148Z,1009.04
2017-10-05T01:38:21.080Z,1009
2017-10-05T01:39:29.912Z,1008.93
2017-10-05T01:40:38.744Z,1008.97
2017-10-05T01:41:47.578Z,1008.86
2017-10-05T01:42:56.409Z,1008.87
2017-10-05T01:44:05.290Z,1008.89
2017-10-05T01:45:14.123Z,1008.89
2017-10-05T01:46:22.955Z,1008.9
2017-10-05T01:47:31.789Z,1008.87
2017-10-05T01:48:40.622Z,1008.86
2017-10-05T01:49:49.453Z,1008.78
2017-10-05T01:50:58.283Z,1008.67
2017-10-05T01:52:07.114Z,1008.71
2017-10-05T01:53:15.946Z,1008.74
2017-10-05T01:54:24.777Z,1008.68
2017-10-05T01:55:33.760Z,1008.66
2017-10-05T01:56:42.594Z,1008.63
2017-10-05T01:57:51.426Z,1008.71
2017-10-05T01:59:00.258Z,1008.72
2017-10-05T02:00:09.090Z,1008.68
2017-10-05T02:01:17.922Z,1008.6
2017-10-05T02:02:26.753Z,1008.62
2017-10-05T02:03:35.584Z,1008.56
2017-10-05T02:04:44.414Z,1008.46
2017-10-05T02:05:53.247Z,1008.39
2017-10-05T02:07:02.661Z,1008.22
2017-10-05T02:08:11.489Z,1008.21
2017-10-05T02:09:20.319Z,1008.25
2017-10-05T02:10:29.150Z,1008.32
2017-10-05T02:11:37.980Z,1008.27
2017-10-05T02:12:47.062Z,1008.19
2017-10-05T02:13:55.893Z,1008.19
2017-10-05T02:15:04.726Z,1008.25
2017-10-05T02:16:13.559Z,1008.26
2017-10-05T02:17:22.388Z,1008.21
2017-10-05T02:18:31.216Z,1008.2
2017-10-05T02:19:40.048Z,1008.22
2017-10-05T02:20:48.877Z,1008.19
2017-10-05T02:21:57.708Z,1008.11
2017-10-05T02:23:06.541Z,1008.06
2017-10-05T02:24:15.472Z,1008.03
2017-10-05T02:25:24.303Z,1007.96
2017-10-05T02:26:33.132Z,1007.99
2017-10-05T02:27:41.962Z,1007.9
2017-10-05T02:28:51.124Z,1007.87
2017-10-05T02:29:59.954Z,1007.77
2017-10-05T02:31:08.787Z,1007.77
2017-10-05T02:32:17.619Z,1007.75
2017-10-05T02:33:26.789Z,1007.83
2017-10-05T02:34:35.628Z,1007.76
2017-10-05T02:35:44.882Z,1007.78
2017-10-05T02:36:53.715Z,1007.72
2017-10-05T02:38:02.549Z,1007.77
2017-10-05T02:39:11.380Z,1007.71
2017-10-05T02:40:20.207Z,1007.62
2017-10-05T02:41:29.520Z,1007.46
2017-10-05T02:42:38.352Z,1007.39
2017-10-05T02:43:47.180Z,1007.37
2017-10-05T02:44:56.013Z,1007.36
2017-10-05T02:46:04.844Z,1007.34
2017-10-05T02:47:13.775Z,1007.2
2017-10-05T02:48:22.608Z,1007.17
2017-10-05T02:49:31.439Z,1007.22
2017-10-05T02:50:40.268Z,1007.2
2017-10-05T02:51:49.099Z,1007.14
2017-10-05T02:52:58.231Z,1007.06
2017-10-05T02:54:07.067Z,1007.04
2017-10-05T02:55:15.896Z,1006.88
2017-10-05T02:56:24.726Z,1006.88
2017-10-05T02:57:33.560Z,1006.82
2017-10-05T02:58:42.387Z,1006.72
2017-10-05T02:59:51.219Z,1006.67
2017-10-05T03:01:00.051Z,1006.64
2017-10-05T03:02:08.884Z,1006.61
2017-10-05T03:03:17.716Z,1006.5
2017-10-05T03:04:26.648Z,1006.47
2017-10-05T03:05:35.480Z,1006.42
2017-10-05T03:06:44.311Z,1006.42
2017-10-05T03:07:53.138Z,1006.36
2017-10-05T03:09:02.307Z,1006.35
2017-10-05T03:10:11.438Z,1006.23
2017-10-05T03:11:20.269Z,1006.15
2017-10-05T03:12:29.103Z,1006.08
2017-10-05T03:13:37.932Z,1005.97
2017-10-05T03:14:46.762Z,1005.95
2017-10-05T03:15:55.892Z,1005.83
2017-10-05T03:17:05.054Z,1005.76
2017-10-05T03:18:13.887Z,1005.66
2017-10-05T03:19:22.717Z,1005.59
2017-10-05T03:20:32.213Z,1005.6
2017-10-05T03:21:41.448Z,1005.49
2017-10-05T03:22:50.279Z,1005.42
2017-10-05T03:23:59.111Z,1005.34
2017-10-05T03:25:07.942Z,1005.34
2017-10-05T03:26:16.772Z,1005.24
2017-10-05T03:27:25.611Z,1005.23
2017-10-05T03:28:34.794Z,1005.25
2017-10-05T03:29:43.604Z,1005.23
2017-10-05T03:30:52.434Z,1005.18
2017-10-05T03:32:01.268Z,1005.16
2017-10-05T03:33:10.248Z,1005.09
2017-10-05T03:34:19.078Z,1005.19
2017-10-05T03:35:27.908Z,1005.29
2017-10-05T03:36:36.741Z,1005.49
2017-10-05T03:37:45.573Z,1005.59
2017-10-05T03:38:54.706Z,1005.6
2017-10-05T03:40:03.536Z,1005.7
2017-10-05T03:41:12.373Z,1005.75
2017-10-05T03:42:21.543Z,1005.72
2017-10-05T03:43:30.375Z,1005.66
2017-10-05T03:44:39.407Z,1005.61
2017-10-05T03:45:48.246Z,1005.64
2017-10-05T03:46:57.071Z,1005.63
2017-10-05T03:48:05.905Z,1005.55
2017-10-05T03:49:14.733Z,1005.46
2017-10-05T03:50:23.865Z,1005.49
2017-10-05T03:51:32.698Z,1005.51
2017-10-05T03:52:41.529Z,1005.53
2017-10-05T03:53:50.359Z,1005.53
2017-10-05T03:54:59.189Z,1005.49
2017-10-05T03:56:08.175Z,1005.5
2017-10-05T03:57:17.000Z,1005.46
2017-10-05T03:58:25.833Z,1005.44
2017-10-05T03:59:34.997Z,1005.36
2017-10-05T04:00:43.828Z,1005.35
2017-10-05T04:01:52.860Z,1005.47
2017-10-05T04:03:01.689Z,1005.44
2017-10-05T04:04:10.852Z,1005.35
2017-10-05T04:05:19.683Z,1005.19
2017-10-05T04:06:28.515Z,1005.1
2017-10-05T04:07:37.647Z,1005.03
2017-10-05T04:08:46.809Z,1004.92
2017-10-05T04:09:55.640Z,1004.93
2017-10-05T04:11:04.470Z,1004.97
2017-10-05T04:12:13.302Z,1004.99
2017-10-05T04:13:22.431Z,1004.96
2017-10-05T04:14:31.593Z,1004.99
2017-10-05T04:15:40.424Z,1005.04
2017-10-05T04:16:49.253Z,1005.03
2017-10-05T04:17:58.083Z,1004.92
2017-10-05T04:19:06.965Z,1004.9
2017-10-05T04:20:15.795Z,1004.83
2017-10-05T04:21:24.626Z,1004.79
2017-10-05T04:22:33.459Z,1004.72
2017-10-05T04:23:42.291Z,1004.64
2017-10-05T04:24:51.223Z,1004.56
2017-10-05T04:26:00.054Z,1004.47
2017-10-05T04:27:08.886Z,1004.44
2017-10-05T04:28:17.719Z,1004.43
2017-10-05T04:29:26.551Z,1004.42
2017-10-05T04:30:35.533Z,1004.29
2017-10-05T04:31:44.367Z,1004.26
2017-10-05T04:32:53.198Z,1004.19
2017-10-05T04:34:02.053Z,1004.12
2017-10-05T04:35:10.885Z,1004.11
2017-10-05T04:36:20.016Z,1004.13
2017-10-05T04:37:28.847Z,1004.16
2017-10-05T04:38:37.680Z,1004.15
2017-10-05T04:39:46.515Z,1004.14
2017-10-05T04:40:55.676Z,1004.04
2017-10-05T04:42:04.757Z,1004.03
2017-10-05T04:43:13.589Z,1003.93
2017-10-05T04:44:22.422Z,1004
2017-10-05T04:45:31.255Z,1003.89
2017-10-05T04:46:40.086Z,1003.87
2017-10-05T04:47:49.220Z,1003.81
2017-10-05T04:48:58.049Z,1003.83
2017-10-05T04:50:06.878Z,1003.68
2017-10-05T04:51:15.710Z,1003.7
2017-10-05T04:52:24.541Z,1003.67
2017-10-05T04:53:33.425Z,1003.56
2017-10-05T04:54:42.258Z,1003.52
2017-10-05T04:55:51.416Z,1003.45
2017-10-05T04:57:00.246Z,1003.4
2017-10-05T04:58:09.075Z,1003.33
2017-10-05T04:59:17.906Z,1003.34
2017-10-05T05:00:26.739Z,1003.36
2017-10-05T05:01:35.902Z,1003.26
2017-10-05T05:02:44.733Z,1003.27
2017-10-05T05:03:53.565Z,1003.24
2017-10-05T05:05:02.695Z,1003.25
2017-10-05T05:06:11.528Z,1003.16
2017-10-05T05:07:20.362Z,1003.15
2017-10-05T05:08:29.191Z,1003.1
2017-10-05T05:09:38.023Z,1003.05
2017-10-05T05:10:46.905Z,1003.09
2017-10-05T05:11:55.735Z,1003
2017-10-05T05:13:04.568Z,1003
2017-10-05T05:14:13.397Z,1002.98
2017-10-05T05:15:22.232Z,1002.89
2017-10-05T05:16:31.390Z,1002.89
2017-10-05T05:17:40.222Z,1002.86
2017-10-05T05:18:49.054Z,1002.76
2017-10-05T05:19:57.886Z,1002.82
2017-10-05T05:21:06.718Z,1002.79
2017-10-05T05:22:15.652Z,1002.75
2017-10-05T05:23:24.814Z,1002.74
2017-10-05T05:24:33.648Z,1002.67
2017-10-05T05:25:42.810Z,1002.66
2017-10-05T05:26:51.641Z,1002.65
2017-10-05T05:28:00.877Z,1002.53
2017-10-05T05:29:09.709Z,1002.55
2017-10-05T05:30:18.542Z,1002.56
2017-10-05T05:31:27.374Z,1002.43
2017-10-05T05:32:36.207Z,1002.43
2017-10-05T05:33:45.523Z,1002.38
2017-10-05T05:34:54.355Z,1002.26
2017-10-05T05:36:03.187Z,1002.33
2017-10-05T05:37:12.351Z,1002.3
2017-10-05T05:38:21.181Z,1002.28
2017-10-05T05:39:30.313Z,1002.36
2017-10-05T05:40:39.145Z,1002.24
2017-10-05T05:41:47.975Z,1002.2
2017-10-05T05:42:56.804Z,1002.11
2017-10-05T05:44:05.636Z,1001.97
2017-10-05T05:45:14.618Z,1001.93
2017-10-05T05:46:23.449Z,1001.86
2017-10-05T05:47:32.280Z,1001.81
2017-10-05T05:48:41.111Z,1001.73
2017-10-05T05:49:49.940Z,1001.64
2017-10-05T05:50:58.873Z,1001.56
2017-10-05T05:52:07.705Z,1001.56
2017-10-05T05:53:16.536Z,1001.48
2017-10-05T05:54:25.371Z,1001.48
2017-10-05T05:55:34.202Z,1001.38
2017-10-05T05:56:43.034Z,1001.41
2017-10-05T05:57:51.862Z,1001.37
2017-10-05T05:59:00.693Z,1001.26
2017-10-05T06:00:09.524Z,1001.05
2017-10-05T06:01:18.356Z,1000.91
2017-10-05T06:02:27.287Z,1000.89
2017-10-05T06:03:36.118Z,1000.74
2017-10-05T06:04:44.946Z,1000.76
2017-10-05T06:05:54.114Z,1000.84
2017-10-05T06:07:02.946Z,1000.78
2017-10-05T06:08:11.927Z,1000.7
2017-10-05T06:09:20.755Z,1000.73
2017-10-05T06:10:29.585Z,1000.63
2017-10-05T06:11:38.418Z,1000.61
2017-10-05T06:12:47.249Z,1000.63
2017-10-05T06:13:56.232Z,1000.66
2017-10-05T06:15:05.066Z,1000.59
2017-10-05T06:16:14.228Z,1000.54
2017-10-05T06:17:23.061Z,1000.5
2017-10-05T06:18:31.894Z,1000.63
2017-10-05T06:19:40.775Z,1000.66
2017-10-05T06:20:49.940Z,1000.71
2017-10-05T06:21:58.770Z,1000.73
2017-10-05T06:23:07.603Z,1000.67
2017-10-05T06:24:16.437Z,1000.63
2017-10-05T06:25:25.421Z,1000.52
2017-10-05T06:26:34.919Z,1000.56
2017-10-05T06:27:44.081Z,1000.49
2017-10-05T06:28:52.911Z,1000.49
2017-10-05T06:30:01.742Z,1000.43
2017-10-05T06:31:10.722Z,1000.43
2017-10-05T06:32:19.551Z,1000.47
2017-10-05T06:33:28.381Z,1000.48
2017-10-05T06:34:37.213Z,1000.47
2017-10-05T06:35:46.042Z,1000.5
2017-10-05T06:36:55.033Z,1000.41
2017-10-05T06:38:03.865Z,1000.31
2017-10-05T06:39:12.698Z,1000.27
2017-10-05T06:40:21.530Z,1000.24
2017-10-05T06:41:30.697Z,1000.24
2017-10-05T06:42:39.579Z,1000.18
2017-10-05T06:43:48.409Z,1000.18
2017-10-05T06:44:57.240Z,1000.12
2017-10-05T06:46:06.070Z,1000.04
2017-10-05T06:47:14.903Z,999.93
2017-10-05T06:48:23.834Z,999.71
2017-10-05T06:49:32.666Z,999.66
2017-10-05T06:50:41.497Z,999.65
2017-10-05T06:51:50.327Z,999.72
2017-10-05T06:52:59.155Z,999.69
2017-10-05T06:54:08.038Z,999.59
2017-10-05T06:55:16.869Z,999.66
2017-10-05T06:56:25.699Z,999.61
2017-10-05T06:57:34.530Z,999.57
2017-10-05T06:58:43.359Z,999.49
2017-10-05T06:59:52.338Z,999.35
2017-10-05T07:01:01.172Z,999.29
2017-10-05T07:02:10.336Z,999.25
2017-10-05T07:03:19.500Z,999.23
2017-10-05T07:04:28.329Z,999.18
2017-10-05T07:05:37.212Z,999.12
2017-10-05T07:06:46.044Z,999.15
2017-10-05T07:07:54.873Z,999
2017-10-05T07:09:04.034Z,999.09
2017-10-05T07:10:12.867Z,998.99
2017-10-05T07:11:22.098Z,998.91
2017-10-05T07:12:30.926Z,998.9
2017-10-05T07:13:39.757Z,998.99
2017-10-05T07:14:48.589Z,998.88
2017-10-05T07:15:57.421Z,998.8
2017-10-05T07:17:06.554Z,998.77
2017-10-05T07:18:15.386Z,998.77
2017-10-05T07:19:24.550Z,998.76
2017-10-05T07:20:33.432Z,998.72
2017-10-05T07:21:42.265Z,998.77
2017-10-05T07:22:51.398Z,998.63
2017-10-05T07:24:00.231Z,998.44
2017-10-05T07:25:09.394Z,998.49
2017-10-05T07:26:18.559Z,998.38
2017-10-05T07:27:27.391Z,998.38
2017-10-05T07:28:36.524Z,998.38
2017-10-05T07:29:45.363Z,998.43
2017-10-05T07:30:54.187Z,998.34
2017-10-05T07:32:03.017Z,998.33
2017-10-05T07:33:11.849Z,998.31
2017-10-05T07:34:20.730Z,998.28
2017-10-05T07:35:29.561Z,998.21
2017-10-05T07:36:38.390Z,998.13
2017-10-05T07:37:47.219Z,998.21
2017-10-05T07:38:56.051Z,998.1
2017-10-05T07:40:04.984Z,998.05
2017-10-05T07:41:13.816Z,998
2017-10-05T07:42:22.647Z,998
2017-10-05T07:43:31.811Z,997.93
2017-10-05T07:44:40.644Z,997.88
2017-10-05T07:45:49.777Z,997.9
2017-10-05T07:46:58.607Z,997.76
2017-10-05T07:48:07.770Z,997.83
2017-10-05T07:49:16.938Z,997.76
2017-10-05T07:50:25.773Z,997.68
2017-10-05T07:51:34.750Z,997.68
2017-10-05T07:52:43.581Z,997.6
2017-10-05T07:53:52.412Z,997.54
2017-10-05T07:55:01.246Z,997.49
2017-10-05T07:56:10.080Z,997.48
2017-10-05T07:57:18.910Z,997.47
2017-10-05T07:58:27.744Z,997.45
2017-10-05T07:59:36.576Z,997.43
2017-10-05T08:00:45.406Z,997.42
2017-10-05T08:01:54.571Z,997.4
2017-10-05T08:03:03.551Z,997.28
2017-10-05T08:04:12.382Z,997.21
2017-10-05T08:05:21.215Z,997.35
2017-10-05T08:06:30.046Z,997.25
2017-10-05T08:07:39.589Z,997.25
2017-10-05T08:08:48.571Z,997.19
2017-10-05T08:09:57.407Z,997.27
2017-10-05T08:11:06.567Z,997.11
2017-10-05T08:12:15.399Z,997.18
2017-10-05T08:13:24.232Z,997.15
2017-10-05T08:14:33.215Z,997.06
2017-10-05T08:15:42.047Z,997.03
2017-10-05T08:16:50.881Z,997.03
2017-10-05T08:17:59.723Z,997.05
2017-10-05T08:19:08.886Z,996.96
2017-10-05T08:20:17.868Z,996.92
2017-10-05T08:21:26.696Z,996.72
2017-10-05T08:22:35.528Z,996.72
2017-10-05T08:23:44.362Z,996.7
2017-10-05T08:24:53.196Z,996.68
2017-10-05T08:26:02.178Z,996.69
2017-10-05T08:27:11.009Z,996.6
2017-10-05T08:28:19.841Z,996.62
2017-10-05T08:29:28.671Z,996.71
2017-10-05T08:30:37.502Z,996.56
2017-10-05T08:31:46.482Z,996.4
2017-10-05T08:32:55.316Z,996.4
2017-10-05T08:34:04.146Z,996.44
2017-10-05T08:35:12.979Z,996.34
2017-10-05T08:36:21.810Z,996.28
2017-10-05T08:37:30.692Z,996.31
2017-10-05T08:38:39.525Z,996.2
2017-10-05T08:39:48.358Z,996.15
2017-10-05T08:40:57.190Z,996.16
2017-10-05T08:42:06.020Z,996.23
2017-10-05T08:43:15.004Z,996.12
2017-10-05T08:44:23.837Z,996.09
2017-10-05T08:45:32.669Z,995.98
2017-10-05T08:46:41.503Z,996.05
2017-10-05T08:47:50.334Z,996.07
2017-10-05T08:48:59.315Z,996.09
2017-10-05T08:50:08.477Z,996
2017-10-05T08:51:17.310Z,995.88
2017-10-05T08:52:26.143Z,995.97
2017-10-05T08:53:34.978Z,995.89
2017-10-05T08:54:43.962Z,995.84
2017-10-05T08:55:52.794Z,995.74
2017-10-05T08:57:01.625Z,995.68
2017-10-05T08:58:10.458Z,995.71
2017-10-05T08:59:19.290Z,995.48
2017-10-05T09:00:28.272Z,995.5
2017-10-05T09:01:37.106Z,995.48
2017-10-05T09:02:45.938Z,995.51
2017-10-05T09:03:54.772Z,995.41
2017-10-05T09:05:03.605Z,995.51
2017-10-05T09:06:12.537Z,995.45
2017-10-05T09:07:21.371Z,995.48
2017-10-05T09:08:30.200Z,995.3
2017-10-05T09:09:39.036Z,995.27
2017-10-05T09:10:47.869Z,995.22
2017-10-05T09:11:56.752Z,995.22
2017-10-05T09:13:05.584Z,995.29
2017-10-05T09:14:14.418Z,995.18
2017-10-05T09:15:23.256Z,995.14
2017-10-05T09:16:32.089Z,995.25
2017-10-05T09:17:41.644Z,995.15
2017-10-05T09:18:50.476Z,995.06
2017-10-05T09:19:59.306Z,995.13
2017-10-05T09:21:08.142Z,995.14
2017-10-05T09:22:16.971Z,995.27
2017-10-05T09:23:25.951Z,995.16
2017-10-05T09:24:34.783Z,995.11
2017-10-05T09:25:43.616Z,995.23
2017-10-05T09:26:52.448Z,994.92
2017-10-05T09:28:01.611Z,994.93
2017-10-05T09:29:10.743Z,994.8
2017-10-05T09:30:19.576Z,994.82
2017-10-05T09:31:28.408Z,994.81
2017-10-05T09:32:37.237Z,994.85
2017-10-05T09:33:46.069Z,994.72
2017-10-05T09:34:55.200Z,995.07
2017-10-05T09:36:04.038Z,994.71
2017-10-05T09:37:12.873Z,994.66
2017-10-05T09:38:21.702Z,994.66
2017-10-05T09:39:30.535Z,994.54
2017-10-05T09:40:39.518Z,994.47
2017-10-05T09:41:48.350Z,994.36
2017-10-05T09:42:57.183Z,994.45
2017-10-05T09:44:06.015Z,994.33
2017-10-05T09:45:14.845Z,994.25
2017-10-05T09:46:23.981Z,994.14
2017-10-05T09:47:32.812Z,994.23
2017-10-05T09:48:41.644Z,994.02
2017-10-05T09:49:50.809Z,994.11
2017-10-05T09:50:59.642Z,994.06
2017-10-05T09:52:08.626Z,994.14
2017-10-05T09:53:17.788Z,993.94
2017-10-05T09:54:26.624Z,994
2017-10-05T09:55:35.455Z,993.78
2017-10-05T09:56:44.289Z,993.67
2017-10-05T09:57:53.171Z,993.72
2017-10-05T09:59:02.004Z,993.63
2017-10-05T10:00:10.845Z,993.39
2017-10-05T10:01:19.680Z,993.41
2017-10-05T10:02:28.508Z,993.26
2017-10-05T10:03:37.341Z,993.2
2017-10-05T10:04:46.175Z,993.12
2017-10-05T10:05:55.008Z,993.17
2017-10-05T10:07:03.843Z,993.15
2017-10-05T10:08:12.673Z,993.17
2017-10-05T10:09:21.812Z,993.22
2017-10-05T10:10:30.645Z,993.39
2017-10-05T10:11:39.816Z,993.24
2017-10-05T10:12:48.651Z,993.14
2017-10-05T10:13:57.482Z,993.12
2017-10-05T10:15:06.368Z,992.83
2017-10-05T10:16:15.203Z,992.97
2017-10-05T10:17:24.037Z,993.05
2017-10-05T10:18:32.869Z,993.52
2017-10-05T10:19:41.705Z,993.42
2017-10-05T10:20:50.640Z,994.04
2017-10-05T10:21:59.476Z,993.76
2017-10-05T10:23:08.307Z,993.63
2017-10-05T10:24:17.141Z,993.93
2017-10-05T10:25:25.974Z,993.47
2017-10-05T10:26:34.805Z,993.57
2017-10-05T10:27:43.640Z,993.58
2017-10-05T10:28:52.472Z,993.62
2017-10-05T10:30:01.306Z,993.51
2017-10-05T10:31:10.141Z,993.44
2017-10-05T10:32:19.124Z,993.47
2017-10-05T10:33:27.959Z,993.4
2017-10-05T10:34:36.802Z,993.62
2017-10-05T10:35:45.639Z,993.44
2017-10-05T10:36:54.473Z,993.64
2017-10-05T10:38:03.458Z,993.61
2017-10-05T10:39:12.293Z,993.58
2017-10-05T10:40:21.127Z,993.73
2017-10-05T10:41:29.962Z,993.71
2017-10-05T10:42:38.796Z,993.7
2017-10-05T10:43:47.631Z,993.71
2017-10-05T10:44:56.466Z,993.76
2017-10-05T10:46:05.634Z,993.91
2017-10-05T10:47:14.468Z,993.98
2017-10-05T10:48:23.303Z,994.19
2017-10-05T10:49:32.288Z,994.94
2017-10-05T10:50:41.122Z,995.64
2017-10-05T10:51:49.952Z,996.3
2017-10-05T10:52:58.786Z,996.11
2017-10-05T10:54:07.965Z,995.93
2017-10-05T10:55:17.184Z,996.15
2017-10-05T10:56:26.016Z,996.58
2017-10-05T10:57:34.852Z,996.5
2017-10-05T10:58:43.681Z,996.54
2017-10-05T10:59:52.511Z,996.85
2017-10-05T11:01:01.674Z,997.38
2017-10-05T11:02:10.507Z,997.25
2017-10-05T11:03:19.340Z,997.1
2017-10-05T11:04:28.175Z,997.27
2017-10-05T11:05:37.008Z,997.44
2017-10-05T11:06:45.992Z,997.53
2017-10-05T11:07:55.160Z,997.67
2017-10-05T11:09:03.992Z,997.77
2017-10-05T11:10:12.823Z,997.97
2017-10-05T11:11:21.654Z,997.97
2017-10-05T11:12:30.789Z,998.04
2017-10-05T11:13:39.624Z,998.38
2017-10-05T11:14:48.457Z,998.29
2017-10-05T11:15:57.292Z,998.29
2017-10-05T11:17:06.454Z,998.65
2017-10-05T11:18:15.438Z,998.42
2017-10-05T11:19:24.272Z,998.93
2017-10-05T11:20:33.104Z,998.89
2017-10-05T11:21:42.274Z,999.11
2017-10-05T11:22:51.441Z,999.09
2017-10-05T11:24:00.322Z,999.24
2017-10-05T11:25:09.153Z,999.25
2017-10-05T11:26:17.984Z,999.66
2017-10-05T11:27:26.817Z,999.51
2017-10-05T11:28:35.651Z,999.75
2017-10-05T11:29:44.584Z,999.72
2017-10-05T11:30:53.416Z,999.88
2017-10-05T11:32:02.249Z,1000.35
2017-10-05T11:33:11.409Z,1000.03
2017-10-05T11:34:20.240Z,1000.35
2017-10-05T11:35:29.222Z,1000.22
2017-10-05T11:36:38.056Z,1000.46
2017-10-05T11:37:46.887Z,1000.48
2017-10-05T11:38:55.724Z,1000.55
2017-10-05T11:40:04.558Z,1000.7
2017-10-05T11:41:13.390Z,1000.7
2017-10-05T11:42:22.223Z,1000.77
2017-10-05T11:43:31.055Z,1001
2017-10-05T11:44:39.886Z,1001.01
2017-10-05T11:45:48.716Z,1001.16
2017-10-05T11:46:57.599Z,1001.15
2017-10-05T11:48:06.431Z,1001.24
2017-10-05T11:49:15.264Z,1001.38
2017-10-05T11:50:24.099Z,1001.48
2017-10-05T11:51:33.266Z,1001.46
2017-10-05T11:52:42.150Z,1001.55
2017-10-05T11:53:50.980Z,1001.74
2017-10-05T11:54:59.811Z,1001.65
2017-10-05T11:56:08.974Z,1001.72
2017-10-05T11:57:17.805Z,1001.8
2017-10-05T11:58:26.686Z,1002.01
2017-10-05T11:59:35.518Z,1001.8
2017-10-05T12:00:44.351Z,1001.71
2017-10-05T12:01:53.183Z,1002.27
2017-10-05T12:03:02.016Z,1002.18
2017-10-05T12:04:10.905Z,1002.1
2017-10-05T12:05:19.731Z,1002.13
2017-10-05T12:06:28.903Z,1002.41
2017-10-05T12:07:37.736Z,1002.4
2017-10-05T12:08:46.568Z,1002.5
2017-10-05T12:09:55.402Z,1002.48
2017-10-05T12:11:04.234Z,1002.41
2017-10-05T12:12:13.069Z,1002.54
2017-10-05T12:13:21.904Z,1002.66
2017-10-05T12:14:30.737Z,1002.77
2017-10-05T12:15:39.672Z,1002.57
2017-10-05T12:16:48.506Z,1002.81
2017-10-05T12:17:57.342Z,1002.91
2017-10-05T12:19:06.174Z,1002.84
2017-10-05T12:20:15.009Z,1003.01
2017-10-05T12:21:23.892Z,1002.98
2017-10-05T12:22:32.727Z,1002.92
2017-10-05T12:23:41.561Z,1002.97
2017-10-05T12:24:50.394Z,1003.11
2017-10-05T12:25:59.226Z,1003.19
2017-10-05T12:27:08.548Z,1003.12
2017-10-05T12:28:17.381Z,1003.32
2017-10-05T12:29:26.217Z,1003.26
2017-10-05T12:30:35.384Z,1003.44
2017-10-05T12:31:44.218Z,1003.42
2017-10-05T12:32:53.806Z,1003.5
2017-10-05T12:34:02.641Z,1003.45
2017-10-05T12:35:11.475Z,1003.49
2017-10-05T12:36:20.308Z,1003.56
2017-10-05T12:37:29.144Z,1003.54
2017-10-05T12:38:37.977Z,1003.55
2017-10-05T12:39:46.810Z,1003.61
2017-10-05T12:40:55.644Z,1003.82
2017-10-05T12:42:04.477Z,1003.75
2017-10-05T12:43:13.308Z,1003.82
2017-10-05T12:44:22.141Z,1003.82
2017-10-05T12:45:30.977Z,1003.89
2017-10-05T12:46:39.809Z,1004.1
2017-10-05T12:47:48.642Z,1004.05
2017-10-05T12:48:57.477Z,1004.01
2017-10-05T12:50:06.612Z,1004.13
2017-10-05T12:51:15.444Z,1004.16
2017-10-05T12:52:24.277Z,1004.18
2017-10-05T12:53:33.109Z,1004.23
2017-10-05T12:54:41.942Z,1004.2
2017-10-05T12:55:51.174Z,1004.25
2017-10-05T12:57:00.008Z,1004.29
2017-10-05T12:58:09.171Z,1004.38
2017-10-05T12:59:18.002Z,1004.42
2017-10-05T13:00:26.833Z,1004.54
2017-10-05T13:01:36.150Z,1004.47
2017-10-05T13:02:44.981Z,1004.6
2017-10-05T13:03:53.814Z,1004.68
2017-10-05T13:05:02.648Z,1004.65
2017-10-05T13:06:11.480Z,1004.53
2017-10-05T13:07:20.362Z,1004.64
2017-10-05T13:08:29.196Z,1004.58
2017-10-05T13:09:38.027Z,1004.63
2017-10-05T13:10:46.858Z,1004.59
2017-10-05T13:11:55.693Z,1004.58
2017-10-05T13:13:04.578Z,1004.56
2017-10-05T13:14:13.410Z,1004.6
2017-10-05T13:15:22.243Z,1004.58
2017-10-05T13:16:31.076Z,1004.66
2017-10-05T13:17:39.909Z,1004.72
2017-10-05T13:18:48.844Z,1004.72
2017-10-05T13:19:57.678Z,1004.72
2017-10-05T13:21:06.510Z,1004.74
2017-10-05T13:22:15.343Z,1004.83
2017-10-05T13:23:24.504Z,1004.77
2017-10-05T13:24:33.435Z,1004.86
2017-10-05T13:25:42.268Z,1004.86
2017-10-05T13:26:51.101Z,1004.9
2017-10-05T13:27:59.932Z,1004.91
2017-10-05T13:29:08.766Z,1004.94
2017-10-05T13:30:17.700Z,1005.05
2017-10-05T13:31:26.531Z,1004.99
2017-10-05T13:32:35.363Z,1005.09
2017-10-05T13:33:44.535Z,1005.13
2017-10-05T13:34:53.367Z,1005.13
2017-10-05T13:36:02.199Z,1005.14
2017-10-05T13:37:11.031Z,1005.15
2017-10-05T13:38:19.863Z,1005.28
2017-10-05T13:39:29.025Z,1005.37
2017-10-05T13:40:38.185Z,1005.33
2017-10-05T13:41:47.068Z,1005.39
2017-10-05T13:42:55.901Z,1005.48
2017-10-05T13:44:04.734Z,1005.51
2017-10-05T13:45:13.567Z,1005.49
2017-10-05T13:46:22.398Z,1005.56
2017-10-05T13:47:31.281Z,1005.56
2017-10-05T13:48:40.114Z,1005.52
2017-10-05T13:49:48.946Z,1005.57
2017-10-05T13:50:57.779Z,1005.61
2017-10-05T13:52:06.612Z,1005.62
2017-10-05T13:53:15.491Z,1005.61
2017-10-05T13:54:24.326Z,1005.63
2017-10-05T13:55:33.156Z,1005.57
2017-10-05T13:56:41.988Z,1005.63
2017-10-05T13:57:50.819Z,1005.61
2017-10-05T13:58:59.700Z,1005.63
2017-10-05T14:00:08.532Z,1005.68
2017-10-05T14:01:17.365Z,1005.71
2017-10-05T14:02:26.200Z,1005.67
2017-10-05T14:03:35.033Z,1005.85
2017-10-05T14:04:43.968Z,1005.84
2017-10-05T14:05:52.801Z,1005.78